Hors Challenge

Le Trail Du Viroin - Nismes (37.00 km)

samedi 12 juin 2021

Vous pouvez trouver Le classement original sur : https://www.goaltiming.be
CHALLENGE DU GRAND COUVIN
LE TRAIL DU VIROIN - NISMES
DISTANCE 36.94 km
samedi 12 juin 2021
 
Place dos NOM Equipe Catégorie Pl/cat temps temps/km Vitesse
01:00:00                
1 3751 MEIJNAERT TONI RUNNIN'GREZ SEH 1 03:12:43 05:13 11.50
2 3741 COPPIN STEVE ESM SEH 2 03:21:56 05:28 10.98
3 3765 KOWALCZYK BENOIT QUBE SEH 3 03:26:06 05:35 10.75
4 3745 ROGGE PIETER - SEH 4 03:26:59 05:36 10.71
5 3750 THIEBAUX CORENTIN ACTE/ESM SEH 5 03:29:51 05:41 10.56
6 3746 LEYN DONAVAN DECATHLON SEH 6 03:30:17 05:42 10.54
7 3777 STIENNES JOHAN - V1 1 03:32:02 05:44 10.45
8 3818 POUCET ANTOINE CES CHIMAY SEH 7 03:33:54 05:47 10.36
9 3835 MARION YVES - V2 1 03:33:55 05:47 10.36
10 3759 COLINET GUILLAUME - SEH 8 03:35:22 05:50 10.29
11 3782 MASSON FRANCOIS TRAILEURS DEJANTES SEH 9 03:35:30 05:50 10.28
12 3768 MASSON CHARLES ACCO SEH 10 03:38:56 05:56 10.12
13 3740 DAME JORDY JCQ (QUIEVRAIN) SEH 11 03:40:31 05:58 10.05
14 3763 DASSESSE THIBAUT RFCL V1 2 03:42:00 06:01 9.98
15 3854 VERBESSELT KEVIN - SEH 12 03:42:52 06:02 9.94
16 3781 LELEU SYLVAIN LB TEAM V1 3 03:43:48 06:04 9.90
17 3791 MASSIN PIERRE - SEH 13 03:44:38 06:05 9.87
18 3767 RADERMECKER NICOLAS FLEURUS ATHLETISME SEH 14 03:46:24 06:08 9.79
19 3762 HUBEAUX DENIS BIESME SEH 15 03:47:46 06:10 9.73
20 3794 CAPELLE CORALINE COCOACH SED 1 03:48:12 06:11 9.71
21 3826 RENARD YVESSS - V2 2 03:49:40 06:13 9.65
22 3825 JEAN-FRANCOIS GAYE - V1 4 03:49:40 06:13 9.65
23 3829 DELMOTTE GERARD ALEXANDRE JOGGING CLUB LICQUOI V1 5 03:49:49 06:13 9.64
24 3754 BRULIAU JEROME TEAM PHACO SEH 16 03:50:08 06:14 9.63
25 3753 TIMMERMANS PHILIPPE - V1 6 03:51:12 06:16 9.59
26 3811 CHAPUIS FABIEN ECLATES PERUWELZ V2 3 03:51:28 06:16 9.57
27 3757 CATOIR BERTRAND ESM V1 7 03:52:23 06:17 9.54
28 3739 TRAJIUS GABRIEL - V2 4 03:52:24 06:18 9.54
29 3799 COPPIN CEDRIC - SEH 17 03:52:32 06:18 9.53
30 3789 POUCET BERENGER TRAIL DE L’EAU BLANC SEH 18 03:52:54 06:18 9.52
31 3796 GEUSE JULIEN ESM/NCFYC V1 8 03:54:00 06:20 9.47
32 3752 CLAPUYT FRANCOIS - SEH 19 03:54:34 06:21 9.45
33 3776 SOBRY MATHIEU JACO SEH 20 03:54:57 06:22 9.43
34 3842 FRANCOIS RAPHAEL - ESH 1 03:56:07 06:24 9.39
35 3841 FRANCOIS HERVE - SEH 21 03:56:07 06:24 9.39
36 3758 COPPE VIANNEY - SEH 22 03:56:08 06:24 9.39
37 3801 POSKIN JULIEN JCHSH SEH 23 03:56:45 06:25 9.36
38 3788 DEBORTOLI NICOLAS TEB SEH 24 03:57:40 06:26 9.33
39 3708 DURY JULIEN - SEH 25 03:58:51 06:28 9.28
40 3839 VERVY QUENTIN TEAM QUBE SEH 26 03:58:56 06:28 9.28
41 3756 MALISOUX LAURENT - V1 9 03:59:08 06:28 9.27
42 3773 SCHACHT WIM GENT RUNNING TEAM V2 5 04:00:20 06:30 9.22
43 3760 DURIN CHRISTOPHE JC QUIEVRAIN/EA DOUC SEH 27 04:00:47 06:31 9.20
44 3817 DE FERM MATHIAS - SEH 28 04:01:17 06:32 9.19
45 3833 MONFORT MICHAEL MADRES V1 10 04:01:49 06:33 9.16
46 3742 TENAERTS ANTOINE TEB SEH 29 04:02:58 06:35 9.12
47 3749 DELERS MAXIMILIEN TEAM PIKMOUTH XXX   04:03:04 06:35 9.12
48 3810 CANON MATHIEU LDLV V1 11 04:04:14 06:37 9.07
49 3814 COLLIN PIERRE - V2 6 04:05:04 06:38 9.04
50 3690 FORGES CHARLES - SEH 30 04:06:03 06:40 9.01
51 3783 PAULUS DAVID - V1 12 04:07:13 06:42 8.96
52 3775 BOUILLET NICOLAS - V1 13 04:08:20 06:43 8.92
53 3780 SCHELFHOUT WIM - V1 14 04:09:12 06:45 8.89
54 3774 BERTE STEPHANE B.C.H V1 15 04:10:33 06:47 8.85
55 3821 LEMOINE FABIAN LES CHAPELIERS FOUS V1 16 04:12:26 06:50 8.78
56 3844 CHEVALIER MICHAEL NEANT V1 17 04:16:30 06:57 8.64
57 3713 DUJEUX JEROME - SEH 31 04:16:45 06:57 8.63
58 3840 NECKEBROECK RONNY - V2 7 04:17:43 06:59 8.60
59 3828 REQUIN ANTOINE JOGGING CLUB LICQUOI SEH 32 04:17:47 06:59 8.60
60 3786 DIDIER MARBAIX MADRES V2 8 04:18:38 07:00 8.57
61 3779 MARKIEWICZ ANNE-SOPHIE - SED 2 04:20:37 07:03 8.50
62 3778 PLICHARD CHRISTOPHE - V1 18 04:20:38 07:03 8.50
63 3769 STOCKMANS KRIS - SEH 33 04:22:13 07:06 8.45
64 3803 CRAPEZ LORY J C QUIEVRAIN V1 19 04:22:44 07:07 8.44
65 3784 GYSEN MAXIM - V1 20 04:22:58 07:07 8.43
66 3766 DESANLIS CYRIL - SEH 34 04:23:08 07:07 8.42
67 3800 GHESQUIERE PATRICK OVERSIDE TRAIL CLUB V2 9 04:23:20 07:08 8.42
68 3815 POTTIEZ PHILIPPE VERTIGO V2 10 04:23:44 07:08 8.40
69 3849 DIEUDONNE MICHEL - V2 11 04:24:13 07:09 8.39
70 3793 VANDENBROUCKE JOHAN GENT RUNNING TEAM V2 12 04:24:17 07:09 8.39
71 3764 VASTEMANS VINCENT - V1 21 04:25:04 07:11 8.36
72 3770 LEROY LUC LA THURE V2 13 04:25:37 07:11 8.34
73 3843 DUTHOO FREDERIC - V1 22 04:25:46 07:12 8.34
74 3790 PAGE BENJAMIN JACO V1 23 04:27:11 07:14 8.29
75 3772 IAZZAG TAHAR RESC V2 14 04:28:52 07:17 8.24
76 3705 KEGELS LAURENT CAVALE V2 15 04:29:20 07:17 8.23
77 3805 BEGUIN OLIVIER BELGIUM UNITED V1 24 04:33:29 07:24 8.10
78 3806 LEBRUN XAVIER BELGIUM UNITED V1 25 04:33:29 07:24 8.10
79 3808 DEBAISE PASCAL - V2 16 04:33:53 07:25 8.09
80 3685 MERCIER MICHEL ESM V2 17 04:36:12 07:29 8.02
81 3807 GRISLIN MARTIAL VUC SPORTS NATURE V2 18 04:37:12 07:30 8.00
82 3706 ABSIL CHRISTOPHE - V1 26 04:37:20 07:30 7.99
83 3693 BIERWISCH JEAN-MICHEL - V1 27 04:37:54 07:31 7.97
84 3691 FOURNEAU LIONEL - SEH 35 04:40:20 07:35 7.91
85 3785 GUSTIN EDDY - V2 19 04:40:43 07:36 7.89
86 3787 CUISSET GUILLAUME TRI4PHIL SEH 36 04:42:31 07:39 7.84
87 3845 GUY MARTIN GUY - V3 1 04:43:13 07:40 7.83
88 3822 AOUADJ DAVID JOGGING CLUB LICQUOI V1 28 04:43:28 07:40 7.82
89 3824 MOTHERON CECILE JOGGING CLUB LICQUOI A2 1 04:43:28 07:40 7.82
90 3827 ROZE JUSTINE JOGGING CLUB LICQUOI SED 3 04:43:29 07:40 7.82
91 3771 VANHEES CHRISTOPHER TEB SEH 37 04:44:14 07:42 7.80
92 3812 MARCHAND YVES VERTIGO V2 20 04:45:14 07:43 7.77
93 3836 DELFOSSE OLIVIER BIOTRAIL V1 29 04:46:15 07:45 7.74
94 3795 LAGAE ALEXIS COCOAH V1 30 04:46:53 07:46 7.73
95 3832 PIERAERT MICHEL SILLY RUNNERS V2 21 04:47:40 07:47 7.70
96 3831 CHENUT THOMAS SILLY RUNNERS V1 31 04:47:41 07:47 7.70
97 3834 MINEO PHILIPPE SILLY RUNNERS V2 22 04:47:41 07:47 7.70
98 3748 PIRODDI JEREMY - SEH 38 04:48:04 07:48 7.69
99 3707 COUMPOURAS GERALDINE - A1 1 04:48:57 07:49 7.67
100 3714 LEENKNECHT EVIE SPORTICS TRAIL TEAM A1 2 04:50:22 07:52 7.63
101 3715 CATTEEUW LORENZO SPORTICS TRAIL TEAM V1 32 04:50:23 07:52 7.63
102 3700 GHEURY PHILIPPE SER ATHL V1 33 04:50:33 07:52 7.63
103 3823 VANDEWALLE THOMAS - SEH 39 04:52:53 07:56 7.57
104 3819 BOGAERT MAARTEN JUDO BANZAI V1 34 04:53:19 07:56 7.56
105 3837 DHONT LIES GENT RUNNING TEAM A1 3 04:53:26 07:57 7.55
106 3704 VERVOORT SYLVIE GENT RUNNING TEAM A1 4 04:54:00 07:58 7.54
107 3719 GREGOIRE CLAUDE BETRAIL V3 2 04:54:17 07:58 7.53
108 3702 GIOVANNANGELO ALAIN ESM V3 3 04:55:03 07:59 7.51
109 3732 ROMAIN REGIS BAIL RUN V1 35 04:55:46 08:00 7.49
110 3731 ROMAIN RUDI ARCH V2 23 04:55:48 08:00 7.49
111 3724 JONATHAN HOCHEPIED JONATHAN TEAM RAAL SEH 40 04:59:12 08:06 7.41
112 3755 MAZZAGUFO SAMUEL NCFYC XXX   04:59:41 08:07 7.40
113 3813 MARMIGNON ARY CROSSFIT PHILIPPEVIL SEH 41 04:59:56 08:07 7.39
114 3723 CUVELIER THIBAUT RALL SEH 42 05:03:00 08:12 7.31
115 3722 VAN MALLEGHEM ANTOINE RALL SEH 43 05:03:51 08:14 7.29
116 3709 LOOTEN MARIE CANICROSS CENTRE HAI A1 5 05:04:14 08:14 7.28
117 3720 CUIGNEZ SEBASTIEN RALL V1 36 05:04:43 08:15 7.27
118 3848 ROLAND EGLANTINE - A1 6 05:05:11 08:16 7.26
119 3734 BLANCKAERT TIM NORDIC ADVENTURETEAM XXX   05:07:31 08:20 7.21
120 3718 COMANDINI LUCIANO UAC/ESM V3 4 05:08:50 08:22 7.18
121 3699 HORDEBISE DANY - V2 24 05:08:52 08:22 7.18
122 3830 DELHALLE XAVIER ANDRESTEAM V1 37 05:12:28 08:28 7.09
123 3851 DMITRIEVA JULIA - A2 2 05:13:12 08:29 7.08
124 3698 PEPINSTER EMMANUEL - V1 38 05:15:09 08:32 7.03
125 3797 WACHEUL DIMITRI LES ECLATES PERUWELZ V1 39 05:15:12 08:32 7.03
126 3701 DECLERCQ YANNICK LES CHAPELIERS FOUS V1 40 05:15:54 08:33 7.02
127 3692 BALLANT DENIS AXA TEAM V2 25 05:16:12 08:34 7.01
128 3721 COUDOU CORENTIN R.A.L.L SEH 44 05:19:57 08:40 6.93
129 3736 BONDUEL STEPHANE BBW053 POLICE WALKER V1 41 05:20:39 08:41 6.91
130 3737 FERNANDES JONATHAN MARCHEURS DE L'EAU N V1 42 05:20:42 08:41 6.91
131 3694 SONET RENAUD BORN TO RUN V1 43 05:23:10 08:45 6.86
132 3816 GILLIARD GERARD VUC SPORT NATURE V3 5 05:30:17 08:57 6.71
133 3716 HOUCHART BRUNO LE FOIE DE LE GARENN V1 44 05:32:18 09:00 6.67
134 3725 DEVOS VINCENT - V1 45 05:32:20 09:00 6.67
135 3703 HEMEL MIKE RALL SEH 45 05:33:16 09:01 6.65
136 3687 CORTELLETTI ENZO MADRES SEH 46 05:33:16 09:01 6.65
137 3717 GRUIELLE YANNICK BETRAIL V2 26 05:37:34 09:08 6.57
138 3683 GALLEZ LAURENCE VERTIGO A1 7 05:45:11 09:21 6.42
139 3689 HONORE MELANIE VERTIGO A1 8 05:45:12 09:21 6.42
140 3798 DEMOULIN STEEVE - XXX   05:51:21 09:31 6.31
141 3727 LETHE VINCENT RONVAU V3 6 05:52:10 09:32 6.29
142 3728 GREVISSE DAVID RONVAU V1 46 05:54:32 09:36 6.25
143 3726 BATISTIC PATRICK RONVAU V2 27 05:55:07 09:37 6.24
144 3729 COWE ALINE - A1 9 06:08:49 09:59 6.01
145 3730 PIERARD ALEXANDRE - V1 47 06:08:52 09:59 6.01
146 3682 LEFEVRE CECILE VERTIGO A2 3 06:13:50 10:07 5.93
147 3681 ANDRE NATHALIE VERTIGO A2 4 06:13:51 10:07 5.93
148 3684 VAN GENECHTEN SERGE CEPAL V3 7 06:17:37 10:13 5.87
                 
Nos dernières videos